Baltimore, Maryland
Traffic Map
Current Weather Conditions
Baltimore, Maryland
Broken Clouds
Broken Clouds
44°
Feels Like: 40°
Wind Chill: 40° Ceiling: 9000
Heat Index: 44° Visibility: 10mi
Dew Point: 28° Wind: 8mph
Humidity: 53% Direction: 100° (E)
Pressure: 29.69in Gusts: 0mph
Raw Report DataKBWI 081854Z 10007KT 10SM SCT036 BKN090 BKN160 BKN250 07/M02 A2969 RMK AO2 SLP055 T00671022
Traffic Incident Summary
Active as of:
Severity:
Category:
InformationThere was an issue retrieving the traffic information for this location. Please try a different location or try again shortly.
Advertisements
Track Severe Weather on mobile